createdAt,value
2022-12-01T00:01:13.178Z,96.67
2022-12-01T00:03:41.176Z,95.90
2022-12-01T00:06:11.615Z,98.43
2022-12-01T00:08:40.574Z,99.32
2022-12-01T00:11:09.839Z,97.92
2022-12-01T00:13:38.008Z,96.59
2022-12-01T00:16:12.222Z,97.34
2022-12-01T00:18:40.193Z,95.67
2022-12-01T00:21:14.512Z,97.35
2022-12-01T00:23:47.163Z,98.33
2022-12-01T00:26:15.201Z,97.31
2022-12-01T00:28:43.073Z,96.54
2022-12-01T00:31:11.093Z,95.40
2022-12-01T00:33:39.170Z,93.82
2022-12-01T00:36:07.681Z,92.20
2022-12-01T00:38:35.939Z,95.35
2022-12-01T00:41:05.594Z,94.37
2022-12-01T00:43:33.296Z,97.02
2022-12-01T00:46:00.931Z,97.32
2022-12-01T00:48:28.562Z,96.45
2022-12-01T00:50:56.712Z,93.95
2022-12-01T00:53:25.397Z,94.27
2022-12-01T00:55:54.296Z,97.93
2022-12-01T00:58:24.189Z,99.96
2022-12-01T01:00:58.534Z,97.51
2022-12-01T01:03:26.394Z,96.18
2022-12-01T01:05:54.033Z,94.23
2022-12-01T01:08:21.823Z,94.54
2022-12-01T01:10:49.824Z,97.60
2022-12-01T01:13:17.466Z,97.26
2022-12-01T01:15:46.509Z,97.02
2022-12-01T01:18:14.109Z,97.19
2022-12-01T01:20:41.693Z,96.90
2022-12-01T01:23:09.364Z,94.56
2022-12-01T01:25:36.995Z,94.53
2022-12-01T01:28:04.850Z,93.76
2022-12-01T01:30:32.562Z,96.11
2022-12-01T01:33:01.723Z,98.25
2022-12-01T01:35:29.294Z,99.55
2022-12-01T01:37:57.333Z,99.42
2022-12-01T01:40:24.995Z,98.25
2022-12-01T01:42:52.634Z,97.88
2022-12-01T01:45:26.080Z,99.37
2022-12-01T01:47:56.455Z,98.49
2022-12-01T01:50:27.723Z,96.79
2022-12-01T01:53:00.239Z,99.01
2022-12-01T01:55:29.463Z,97.24
2022-12-01T01:57:57.855Z,96.63
2022-12-01T02:00:25.755Z,96.37
2022-12-01T02:02:55.208Z,97.62
2022-12-01T02:05:27.697Z,97.81
2022-12-01T02:07:58.270Z,98.47
2022-12-01T02:10:34.153Z,98.58
2022-12-01T02:13:12.659Z,96.18
2022-12-01T02:15:48.696Z,97.06
2022-12-01T02:18:27.794Z,98.50
2022-12-01T02:21:35.946Z,97.43
2022-12-01T02:24:38.840Z,97.84
2022-12-01T02:27:11.819Z,97.02
2022-12-01T02:30:05.851Z,99.00
2022-12-01T02:32:48.107Z,96.12
2022-12-01T02:35:23.117Z,96.01
2022-12-01T02:38:02.336Z,96.00
2022-12-01T02:40:33.940Z,96.17
2022-12-01T02:43:07.601Z,96.11
2022-12-01T02:45:41.822Z,96.03
2022-12-01T02:48:16.003Z,96.67
2022-12-01T02:50:46.803Z,97.36
2022-12-01T02:53:19.305Z,97.11
2022-12-01T02:55:52.581Z,97.13
2022-12-01T02:58:21.029Z,98.01
2022-12-01T03:01:12.717Z,96.37
2022-12-01T03:04:00.446Z,94.30
2022-12-01T03:06:41.725Z,96.71
2022-12-01T03:09:15.786Z,96.90
2022-12-01T03:11:51.546Z,99.76
2022-12-01T03:14:30.315Z,96.71
2022-12-01T03:17:00.394Z,95.81
2022-12-01T03:19:36.463Z,96.76
2022-12-01T03:22:09.840Z,98.91
2022-12-01T03:24:39.832Z,99.17
2022-12-01T03:27:09.844Z,96.97
2022-12-01T03:29:41.323Z,96.57
2022-12-01T03:32:15.591Z,97.59
2022-12-01T03:34:49.619Z,97.45
2022-12-01T03:37:22.915Z,98.24
2022-12-01T03:39:59.766Z,95.08
2022-12-01T03:42:32.860Z,94.66
2022-12-01T03:45:05.933Z,97.40
2022-12-01T03:47:37.445Z,100.00
2022-12-01T03:50:09.776Z,97.11
2022-12-01T03:52:49.659Z,94.86
2022-12-01T03:55:21.820Z,97.40
2022-12-01T03:57:55.740Z,97.88
2022-12-01T04:00:23.935Z,95.55
2022-12-01T04:02:56.189Z,96.32
2022-12-01T04:05:25.896Z,98.75
2022-12-01T04:07:53.816Z,96.85
2022-12-01T04:10:21.684Z,97.92
2022-12-01T04:12:48.285Z,96.83
2022-12-01T04:15:16.716Z,95.84
2022-12-01T04:17:45.554Z,94.98
2022-12-01T04:20:15.457Z,95.46
2022-12-01T04:22:45.059Z,95.53
2022-12-01T04:25:12.718Z,96.51
2022-12-01T04:27:40.578Z,96.28
2022-12-01T04:30:09.961Z,96.10
2022-12-01T04:32:39.415Z,95.07
2022-12-01T04:35:07.751Z,96.02
2022-12-01T04:37:35.458Z,98.00
2022-12-01T04:40:05.736Z,96.98
2022-12-01T04:42:33.356Z,97.82
2022-12-01T04:45:00.971Z,99.00
2022-12-01T04:47:28.745Z,97.91
2022-12-01T04:49:56.338Z,97.73
2022-12-01T04:52:23.982Z,98.86
2022-12-01T04:54:51.569Z,98.48
2022-12-01T04:57:20.496Z,98.14
2022-12-01T04:59:48.508Z,97.09
2022-12-01T05:02:16.811Z,97.18
2022-12-01T05:04:47.926Z,97.66
2022-12-01T05:07:15.586Z,96.96
2022-12-01T05:09:43.224Z,97.20
2022-12-01T05:12:10.821Z,95.57
2022-12-01T05:14:39.805Z,94.53
2022-12-01T05:17:07.397Z,95.90
2022-12-01T05:19:52.549Z,94.88
2022-12-01T05:22:31.426Z,96.47
2022-12-01T05:25:08.249Z,94.88
2022-12-01T05:27:35.816Z,93.65
2022-12-01T05:30:05.854Z,93.07
2022-12-01T05:32:33.516Z,94.79
2022-12-01T05:35:01.090Z,97.06
2022-12-01T05:37:32.191Z,94.76
2022-12-01T05:39:59.852Z,95.26
2022-12-01T05:42:27.544Z,94.87
2022-12-01T05:44:55.126Z,95.28
2022-12-01T05:47:24.071Z,97.36
2022-12-01T05:49:51.725Z,96.36
2022-12-01T05:52:19.383Z,96.44
2022-12-01T05:54:46.966Z,96.03
2022-12-01T05:57:14.562Z,94.49
2022-12-01T05:59:42.131Z,96.25
2022-12-01T06:02:09.736Z,93.54
2022-12-01T06:04:38.691Z,93.11
2022-12-01T06:07:06.301Z,91.84
2022-12-01T06:09:33.961Z,91.01
2022-12-01T06:12:01.588Z,92.53
2022-12-01T06:14:29.249Z,91.44
2022-12-01T06:16:56.941Z,91.46
2022-12-01T06:19:24.562Z,93.13
2022-12-01T06:21:53.496Z,92.01
2022-12-01T06:24:21.065Z,90.30
2022-12-01T06:26:48.656Z,93.83
2022-12-01T06:29:16.670Z,93.82
2022-12-01T06:31:44.328Z,91.01
2022-12-01T06:34:12.364Z,90.48
2022-12-01T06:36:39.964Z,92.77
2022-12-01T06:39:10.203Z,92.28
2022-12-01T06:41:37.842Z,93.72
2022-12-01T06:44:05.776Z,95.05
2022-12-01T06:46:33.424Z,95.86
2022-12-01T06:49:01.163Z,96.12
2022-12-01T06:51:28.813Z,96.57
2022-12-01T06:54:00.815Z,96.10
2022-12-01T06:56:32.800Z,95.68
2022-12-01T06:59:00.926Z,95.74
2022-12-01T07:01:28.946Z,94.99
2022-12-01T07:03:56.860Z,91.87
2022-12-01T07:06:24.499Z,93.14
2022-12-01T07:08:53.396Z,92.75
2022-12-01T07:11:21.037Z,92.40
2022-12-01T07:13:50.833Z,91.83
2022-12-01T07:16:18.472Z,90.28
2022-12-01T07:18:46.122Z,90.64
2022-12-01T07:21:15.827Z,93.06
2022-12-01T07:23:43.780Z,92.11
2022-12-01T07:26:13.238Z,93.83
2022-12-01T07:28:41.077Z,96.21
2022-12-01T07:31:13.364Z,96.86
2022-12-01T07:33:41.397Z,96.08
2022-12-01T07:36:10.865Z,92.22
2022-12-01T07:38:39.803Z,91.72
2022-12-01T07:41:09.332Z,90.56
2022-12-01T07:43:36.957Z,89.79
2022-12-01T07:46:06.743Z,92.16
2022-12-01T07:48:37.130Z,93.96
2022-12-01T07:51:05.500Z,95.30
2022-12-01T07:53:33.399Z,96.50
2022-12-01T07:56:05.709Z,94.45
2022-12-01T07:58:35.927Z,93.97
2022-12-01T08:01:07.697Z,94.58
2022-12-01T08:03:37.029Z,94.38
2022-12-01T08:06:06.165Z,94.10
2022-12-01T08:08:35.596Z,95.01
2022-12-01T08:11:05.612Z,95.34
2022-12-01T08:13:33.336Z,95.40
2022-12-01T08:16:04.599Z,96.08
2022-12-01T08:18:32.258Z,95.04
2022-12-01T08:21:01.273Z,93.90
2022-12-01T08:23:28.885Z,96.27
2022-12-01T08:25:57.533Z,94.85
2022-12-01T08:28:25.116Z,95.50
2022-12-01T08:30:52.745Z,92.91
2022-12-01T08:33:20.341Z,91.40
2022-12-01T08:35:47.942Z,90.48
2022-12-01T08:38:17.211Z,91.00
2022-12-01T08:40:44.803Z,88.59
2022-12-01T08:43:28.345Z,88.23
2022-12-01T08:46:00.456Z,94.06
2022-12-01T08:48:29.962Z,91.69
2022-12-01T08:51:06.485Z,89.96
2022-12-01T08:53:39.188Z,90.01
2022-12-01T08:56:13.989Z,90.11
2022-12-01T08:58:42.024Z,93.65
2022-12-01T09:01:11.552Z,92.27
2022-12-01T09:03:40.502Z,92.29
2022-12-01T09:06:10.618Z,95.09
2022-12-01T09:08:40.058Z,93.88
2022-12-01T09:11:09.470Z,92.00
2022-12-01T09:13:39.512Z,92.92
2022-12-01T09:16:09.870Z,94.42
2022-12-01T09:18:37.874Z,94.09
2022-12-01T09:21:12.257Z,92.51
2022-12-01T09:23:41.516Z,91.30
2022-12-01T09:26:13.525Z,92.21
2022-12-01T09:28:41.688Z,92.75
2022-12-01T09:31:11.075Z,94.64
2022-12-01T09:33:39.152Z,94.35
2022-12-01T09:36:09.317Z,92.75
2022-12-01T09:38:38.285Z,93.83
2022-12-01T09:41:18.715Z,93.74
2022-12-01T09:43:51.684Z,93.29
2022-12-01T09:46:22.936Z,92.23
2022-12-01T09:48:53.674Z,96.30
2022-12-01T09:51:23.610Z,95.35
2022-12-01T09:53:53.224Z,95.05
2022-12-01T09:56:24.569Z,93.80
2022-12-01T09:58:55.749Z,94.70
2022-12-01T10:01:32.670Z,92.79
2022-12-01T10:04:07.020Z,92.44
2022-12-01T10:06:42.467Z,90.80
2022-12-01T10:09:19.976Z,93.92
2022-12-01T10:11:51.901Z,95.84
2022-12-01T10:14:21.122Z,93.93
2022-12-01T10:17:00.255Z,94.59
2022-12-01T10:19:34.509Z,94.03
2022-12-01T10:22:16.912Z,92.01
2022-12-01T10:24:55.146Z,93.96
2022-12-01T10:27:39.776Z,94.47
2022-12-01T10:30:11.463Z,93.76
2022-12-01T10:32:47.200Z,92.18
2022-12-01T10:35:17.647Z,93.04
2022-12-01T10:37:47.487Z,94.09
2022-12-01T10:40:17.238Z,93.46
2022-12-01T10:42:48.411Z,93.21
2022-12-01T10:45:19.576Z,93.18
2022-12-01T10:48:10.790Z,93.64
2022-12-01T10:50:38.565Z,94.40
2022-12-01T10:53:06.302Z,96.51
2022-12-01T10:55:37.464Z,95.69
2022-12-01T10:58:16.711Z,96.08
2022-12-01T11:01:01.168Z,95.85
2022-12-01T11:03:31.296Z,93.33
2022-12-01T11:06:01.448Z,93.58
2022-12-01T11:08:37.129Z,91.85
2022-12-01T11:11:05.636Z,95.03
2022-12-01T11:13:36.409Z,95.91
2022-12-01T11:16:07.135Z,96.76
2022-12-01T11:18:36.271Z,99.19
2022-12-01T11:21:13.431Z,99.79
2022-12-01T11:23:47.206Z,99.33
2022-12-01T11:26:17.861Z,98.89
2022-12-01T11:28:55.204Z,96.42
2022-12-01T11:31:28.021Z,95.89
2022-12-01T11:33:57.312Z,98.32
2022-12-01T11:36:33.266Z,98.90
2022-12-01T11:39:02.980Z,100.00
2022-12-01T11:41:35.023Z,100.00
2022-12-01T11:44:12.785Z,100.00
2022-12-01T11:46:55.500Z,100.00
2022-12-01T11:49:26.810Z,99.59
2022-12-01T11:51:54.661Z,98.30
2022-12-01T11:54:24.576Z,100.00
2022-12-01T11:59:42.902Z,100.00
2022-12-01T12:02:23.325Z,100.00
2022-12-01T12:05:27.529Z,100.00
2022-12-01T12:08:04.922Z,99.35
2022-12-01T12:10:49.707Z,96.22
2022-12-01T12:13:44.202Z,94.68
2022-12-01T12:16:19.492Z,96.14
2022-12-01T12:19:02.655Z,96.68
2022-12-01T12:21:34.481Z,99.43
2022-12-01T12:24:23.881Z,100.00
2022-12-01T12:27:00.832Z,100.00
2022-12-01T12:29:40.650Z,99.76
2022-12-01T12:32:27.150Z,99.15
2022-12-01T12:35:03.003Z,97.65
2022-12-01T12:37:41.901Z,98.75
2022-12-01T12:40:27.572Z,100.00
2022-12-01T12:43:09.387Z,100.00
2022-12-01T12:45:49.751Z,98.26
2022-12-01T12:48:28.639Z,99.13
2022-12-01T12:51:04.395Z,99.34
2022-12-01T12:53:40.341Z,100.00
2022-12-01T12:56:13.192Z,100.00
2022-12-01T12:58:55.876Z,98.63
2022-12-01T13:01:27.422Z,99.05
2022-12-01T13:04:02.139Z,98.12
2022-12-01T13:06:36.207Z,98.67
2022-12-01T13:09:09.576Z,99.61
2022-12-01T13:11:43.716Z,98.92
2022-12-01T13:14:18.979Z,97.09
2022-12-01T13:16:49.695Z,96.43
2022-12-01T13:19:25.045Z,95.00
2022-12-01T13:21:54.456Z,96.52
2022-12-01T13:24:24.900Z,95.72
2022-12-01T13:26:57.428Z,97.77
2022-12-01T13:29:26.847Z,95.92
2022-12-01T13:31:55.917Z,97.02
2022-12-01T13:34:27.688Z,95.95
2022-12-01T13:36:57.123Z,96.29
2022-12-01T13:39:27.857Z,92.96
2022-12-01T13:42:01.587Z,90.09
2022-12-01T13:44:33.467Z,90.28
2022-12-01T13:47:04.778Z,92.25
2022-12-01T13:49:41.961Z,92.73
2022-12-01T13:52:30.200Z,92.33
2022-12-01T13:55:03.350Z,94.44
2022-12-01T13:57:33.232Z,93.71
2022-12-01T14:00:21.286Z,94.09
2022-12-01T14:03:26.659Z,95.43
2022-12-01T14:06:06.579Z,97.20
2022-12-01T14:08:37.613Z,95.94
2022-12-01T14:11:09.140Z,93.01
2022-12-01T14:13:47.655Z,95.10
2022-12-01T14:16:16.353Z,94.51
2022-12-01T14:18:50.241Z,94.45
2022-12-01T14:21:43.458Z,94.32
2022-12-01T14:24:23.064Z,94.00
2022-12-01T14:26:52.513Z,95.15
2022-12-01T14:29:29.428Z,94.78
2022-12-01T14:32:21.684Z,92.95
2022-12-01T14:35:11.639Z,94.39
2022-12-01T14:37:47.223Z,93.76
2022-12-01T14:40:24.462Z,95.00
2022-12-01T14:43:14.272Z,94.93
2022-12-01T14:45:48.585Z,94.85
2022-12-01T14:48:19.657Z,95.16
2022-12-01T14:50:50.299Z,92.88
2022-12-01T14:53:26.755Z,93.86
2022-12-01T14:55:57.408Z,94.66
2022-12-01T14:58:29.701Z,92.90
2022-12-01T15:01:05.721Z,90.52
2022-12-01T15:03:38.049Z,93.75
2022-12-01T15:06:06.353Z,97.09
2022-12-01T15:08:45.750Z,95.61
2022-12-01T15:11:22.956Z,95.21
2022-12-01T15:13:53.670Z,93.85
2022-12-01T15:16:24.143Z,96.74
2022-12-01T15:18:52.587Z,95.62
2022-12-01T15:21:23.472Z,95.67
2022-12-01T15:24:01.131Z,96.31
2022-12-01T15:26:31.685Z,92.95
2022-12-01T15:29:23.211Z,92.62
2022-12-01T15:31:53.372Z,90.35
2022-12-01T15:34:24.710Z,92.30
2022-12-01T15:36:53.883Z,90.74
2022-12-01T15:39:30.215Z,88.60
2022-12-01T15:41:58.509Z,88.51
2022-12-01T15:44:29.809Z,88.44
2022-12-01T15:46:57.561Z,88.39
2022-12-01T15:49:29.466Z,90.53
2022-12-01T15:52:09.949Z,91.07
2022-12-01T15:54:39.758Z,91.13
2022-12-01T15:57:07.895Z,91.73
2022-12-01T15:59:39.542Z,90.88
2022-12-01T16:02:17.071Z,91.62
2022-12-01T16:04:44.984Z,91.44
2022-12-01T16:07:14.124Z,91.75
2022-12-01T16:09:45.028Z,93.49
2022-12-01T16:12:26.488Z,93.49
2022-12-01T16:14:57.563Z,93.25
2022-12-01T16:17:26.331Z,90.54
2022-12-01T16:20:17.310Z,91.86
2022-12-01T16:22:46.311Z,92.24
2022-12-01T16:25:23.158Z,89.79
2022-12-01T16:27:58.188Z,90.53
2022-12-01T16:30:30.086Z,94.51
2022-12-01T16:33:15.084Z,96.58
2022-12-01T16:35:42.865Z,95.56
2022-12-01T16:38:16.249Z,95.92
2022-12-01T16:40:45.536Z,95.90
2022-12-01T16:43:16.566Z,96.72
2022-12-01T16:45:44.837Z,99.23
2022-12-01T16:48:12.972Z,99.45
2022-12-01T16:50:41.306Z,100.00
2022-12-01T16:53:10.408Z,99.81
2022-12-01T16:55:42.570Z,97.23
2022-12-01T16:58:11.947Z,99.18
2022-12-01T17:00:39.770Z,99.95
2022-12-01T17:03:09.004Z,99.37
2022-12-01T17:05:36.811Z,98.02
2022-12-01T17:08:04.928Z,98.91
2022-12-01T17:10:32.704Z,98.17
2022-12-01T17:13:00.491Z,98.62
2022-12-01T17:15:29.649Z,97.91
2022-12-01T17:17:57.426Z,99.05
2022-12-01T17:20:25.612Z,100.00
2022-12-01T17:22:53.375Z,100.00
2022-12-01T17:25:21.079Z,100.00
2022-12-01T17:27:48.822Z,97.97
2022-12-01T17:30:16.761Z,99.87
2022-12-01T17:32:46.486Z,100.00
2022-12-01T17:35:14.444Z,99.07
2022-12-01T17:37:42.691Z,100.00
2022-12-01T17:40:14.763Z,100.00
2022-12-01T17:42:46.959Z,100.00
2022-12-01T17:45:16.432Z,99.99
2022-12-01T17:47:45.631Z,100.00
2022-12-01T17:50:13.325Z,98.06
2022-12-01T17:52:41.143Z,99.60
2022-12-01T17:55:10.218Z,98.82
2022-12-01T17:57:38.240Z,99.76
2022-12-01T18:00:07.324Z,99.47
2022-12-01T18:02:35.103Z,98.96
2022-12-01T18:05:04.694Z,100.00
2022-12-01T18:07:32.685Z,99.02
2022-12-01T18:10:00.561Z,96.67
2022-12-01T18:12:28.333Z,99.27
2022-12-01T18:14:56.096Z,99.79
2022-12-01T18:17:23.839Z,97.03
2022-12-01T18:19:51.521Z,99.01
2022-12-01T18:22:20.637Z,99.14
2022-12-01T18:24:48.776Z,100.00
2022-12-01T18:27:16.770Z,99.40
2022-12-01T18:29:44.522Z,99.80
2022-12-01T18:32:12.227Z,99.44
2022-12-01T18:34:39.980Z,97.46
2022-12-01T18:37:07.776Z,99.02
2022-12-01T18:39:36.892Z,97.61
2022-12-01T18:42:04.889Z,98.91
2022-12-01T18:44:32.842Z,98.35
2022-12-01T18:47:02.780Z,100.00
2022-12-01T18:49:30.712Z,97.74
2022-12-01T18:51:59.807Z,97.78
2022-12-01T18:54:27.648Z,99.37
2022-12-01T18:56:58.879Z,98.66
2022-12-01T18:59:26.909Z,97.60
2022-12-01T19:01:54.986Z,96.35
2022-12-01T19:04:22.749Z,97.01
2022-12-01T19:06:50.518Z,95.89
2022-12-01T19:09:18.571Z,95.86
2022-12-01T19:11:46.394Z,96.00
2022-12-01T19:14:17.501Z,95.22
2022-12-01T19:16:45.639Z,97.07
2022-12-01T19:19:13.593Z,98.54
2022-12-01T19:21:41.531Z,96.04
2022-12-01T19:24:09.538Z,95.52
2022-12-01T19:26:37.422Z,92.65
2022-12-01T19:29:05.492Z,92.82
2022-12-01T19:31:34.951Z,93.55
2022-12-01T19:34:03.673Z,92.48
2022-12-01T19:36:31.408Z,90.46
2022-12-01T19:39:00.580Z,90.68
2022-12-01T19:41:30.356Z,94.06
2022-12-01T19:43:59.488Z,92.53
2022-12-01T19:46:28.974Z,92.57
2022-12-01T19:49:00.348Z,90.31
2022-12-01T19:51:30.636Z,91.88
2022-12-01T19:53:59.113Z,89.34
2022-12-01T19:56:27.327Z,88.57
2022-12-01T19:58:55.200Z,89.63
2022-12-01T20:01:23.007Z,93.10
2022-12-01T20:03:52.756Z,91.44
2022-12-01T20:06:24.071Z,89.92
2022-12-01T20:08:52.433Z,88.88
2022-12-01T20:11:20.712Z,92.90
2022-12-01T20:13:49.048Z,94.13
2022-12-01T20:16:19.033Z,95.14
2022-12-01T20:18:47.149Z,96.74
2022-12-01T20:21:17.550Z,94.49
2022-12-01T20:23:49.202Z,94.22
2022-12-01T20:26:18.870Z,94.61
2022-12-01T20:28:47.991Z,94.64
2022-12-01T20:31:19.366Z,95.67
2022-12-01T20:33:47.945Z,96.04
2022-12-01T20:36:16.028Z,94.13
2022-12-01T20:38:43.941Z,92.84
2022-12-01T20:41:13.901Z,93.99
2022-12-01T20:43:41.799Z,92.96
2022-12-01T20:46:09.659Z,92.87
2022-12-01T20:48:37.385Z,90.99
2022-12-01T20:51:06.919Z,91.02
2022-12-01T20:53:35.060Z,92.26
2022-12-01T20:56:03.850Z,89.91
2022-12-01T20:58:37.204Z,89.30
2022-12-01T21:01:09.304Z,93.41
2022-12-01T21:03:39.426Z,92.44
2022-12-01T21:06:07.719Z,93.69
2022-12-01T21:08:38.509Z,94.31
2022-12-01T21:11:08.544Z,91.09
2022-12-01T21:13:39.334Z,94.57
2022-12-01T21:16:14.201Z,93.70
2022-12-01T21:18:54.840Z,94.71
2022-12-01T21:21:25.611Z,92.62
2022-12-01T21:24:10.822Z,93.68
2022-12-01T21:26:40.875Z,93.86
2022-12-01T21:29:18.800Z,93.48
2022-12-01T21:31:46.906Z,91.09
2022-12-01T21:34:19.334Z,91.68
2022-12-01T21:36:48.797Z,91.64
2022-12-01T21:39:18.667Z,91.62
2022-12-01T21:41:46.531Z,92.23
2022-12-01T21:44:18.018Z,93.99
2022-12-01T21:46:46.250Z,94.38
2022-12-01T21:49:16.297Z,93.89
2022-12-01T21:51:44.705Z,91.89
2022-12-01T21:54:16.674Z,91.02
2022-12-01T21:56:44.614Z,89.96
2022-12-01T21:59:20.058Z,91.74
2022-12-01T22:01:48.613Z,92.73
2022-12-01T22:04:20.298Z,90.54
2022-12-01T22:06:49.786Z,88.26
2022-12-01T22:09:26.391Z,92.77
2022-12-01T22:11:55.680Z,95.24
2022-12-01T22:14:28.645Z,92.96
2022-12-01T22:16:58.031Z,92.85
2022-12-01T22:19:29.872Z,91.97
2022-12-01T22:22:03.166Z,93.95
2022-12-01T22:24:38.975Z,96.72
2022-12-01T22:27:26.812Z,96.58
2022-12-01T22:29:59.456Z,93.65
2022-12-01T22:32:38.907Z,93.69
2022-12-01T22:35:23.145Z,93.90
2022-12-01T22:37:52.904Z,93.69
2022-12-01T22:40:41.192Z,94.48
2022-12-01T22:43:23.992Z,96.08
2022-12-01T22:46:17.660Z,95.05
2022-12-01T22:48:47.322Z,93.68
2022-12-01T22:51:27.655Z,92.64
2022-12-01T22:54:01.048Z,93.89
2022-12-01T22:56:32.721Z,91.09
2022-12-01T22:59:00.434Z,91.51
2022-12-01T23:01:31.356Z,92.82
2022-12-01T23:04:14.313Z,97.28
2022-12-01T23:06:52.037Z,93.36
2022-12-01T23:09:20.305Z,95.37
2022-12-01T23:11:52.000Z,94.44
2022-12-01T23:14:23.131Z,91.57
2022-12-01T23:16:54.314Z,89.02
2022-12-01T23:19:21.933Z,89.53
2022-12-01T23:21:49.517Z,88.90
2022-12-01T23:24:19.292Z,90.51
2022-12-01T23:26:47.513Z,91.22
2022-12-01T23:29:15.142Z,94.73
2022-12-01T23:31:42.916Z,92.54
2022-12-01T23:34:16.211Z,91.76
2022-12-01T23:36:44.171Z,95.55
2022-12-01T23:39:13.879Z,97.14
2022-12-01T23:41:43.865Z,97.72
2022-12-01T23:44:18.412Z,95.40
2022-12-01T23:46:47.038Z,93.75
2022-12-01T23:49:19.995Z,92.24
2022-12-01T23:51:50.747Z,92.87
2022-12-01T23:54:22.072Z,94.52
2022-12-01T23:56:59.047Z,92.31
2022-12-01T23:59:27.184Z,92.70
